createdAt,value
2023-03-03T00:03:09.629Z,33.92
2023-03-03T00:08:14.175Z,38.33
2023-03-03T00:13:18.421Z,32.78
2023-03-03T00:18:27.777Z,42.38
2023-03-03T00:23:36.229Z,36.35
2023-03-03T00:28:45.395Z,37.72
2023-03-03T00:33:50.646Z,39.00
2023-03-03T00:38:55.980Z,45.65
2023-03-03T00:43:59.473Z,40.03
2023-03-03T00:49:02.852Z,43.90
2023-03-03T00:54:07.362Z,44.58
2023-03-03T00:59:10.592Z,44.22
2023-03-03T01:04:14.673Z,37.50
2023-03-03T01:09:20.697Z,39.03
2023-03-03T01:14:24.062Z,45.85
2023-03-03T01:19:27.889Z,36.92
2023-03-03T01:24:32.795Z,35.30
2023-03-03T01:29:36.512Z,36.15
2023-03-03T01:34:39.628Z,36.53
2023-03-03T01:39:44.142Z,35.13
2023-03-03T01:44:47.546Z,34.33
2023-03-03T01:49:53.305Z,35.97
2023-03-03T01:55:00.359Z,38.05
2023-03-03T02:00:04.087Z,36.22
2023-03-03T02:05:16.235Z,33.72
2023-03-03T02:10:22.670Z,35.53
2023-03-03T02:15:26.718Z,32.97
2023-03-03T02:20:33.892Z,35.00
2023-03-03T02:25:43.564Z,33.63
2023-03-03T02:30:48.191Z,38.45
2023-03-03T02:35:51.540Z,36.53
2023-03-03T02:41:00.388Z,37.08
2023-03-03T02:46:05.100Z,35.53
2023-03-03T02:51:08.386Z,38.70
2023-03-03T02:56:11.551Z,45.80
2023-03-03T03:01:16.090Z,41.28
2023-03-03T03:06:20.892Z,43.30
2023-03-03T03:11:24.846Z,45.13
2023-03-03T03:16:29.496Z,37.88
2023-03-03T03:21:33.120Z,38.20
2023-03-03T03:26:37.070Z,39.42
2023-03-03T03:31:43.833Z,40.88
2023-03-03T03:36:47.157Z,46.70
2023-03-03T03:41:52.767Z,39.60
2023-03-03T03:46:57.356Z,42.75
2023-03-03T03:52:02.043Z,42.42
2023-03-03T03:57:08.626Z,42.60
2023-03-03T04:02:13.956Z,38.80
2023-03-03T04:07:17.363Z,40.95
2023-03-03T04:12:21.051Z,46.05
2023-03-03T04:17:25.718Z,43.67
2023-03-03T04:22:30.210Z,41.72
2023-03-03T04:27:34.642Z,42.00
2023-03-03T04:32:39.311Z,45.85
2023-03-03T04:37:45.361Z,43.72
2023-03-03T04:42:49.660Z,46.50
2023-03-03T04:47:55.030Z,43.70
2023-03-03T04:52:59.402Z,48.63
2023-03-03T04:58:03.520Z,43.03
2023-03-03T05:03:08.491Z,45.78
2023-03-03T05:08:11.763Z,49.45
2023-03-03T05:13:15.387Z,44.47
2023-03-03T05:18:20.792Z,42.38
2023-03-03T05:23:24.152Z,43.95
2023-03-03T05:28:27.285Z,43.03
2023-03-03T05:33:31.844Z,49.15
2023-03-03T05:38:35.071Z,46.67
2023-03-03T05:43:38.162Z,42.13
2023-03-03T05:48:43.075Z,52.63
2023-03-03T05:53:46.344Z,43.25
2023-03-03T05:58:49.429Z,47.53
2023-03-03T06:03:54.164Z,40.05
2023-03-03T06:08:57.416Z,45.78
2023-03-03T06:14:01.516Z,31.73
2023-03-03T06:19:06.238Z,41.83
2023-03-03T06:24:09.614Z,33.70
2023-03-03T06:29:14.641Z,29.23
2023-03-03T06:34:20.176Z,26.90
2023-03-03T06:39:23.348Z,28.35
2023-03-03T06:44:28.767Z,32.00
2023-03-03T06:49:33.539Z,38.05
2023-03-03T06:54:36.866Z,34.85
2023-03-03T06:59:40.197Z,36.60
2023-03-03T07:04:45.566Z,31.38
2023-03-03T07:09:49.801Z,31.50
2023-03-03T07:14:55.922Z,24.02
2023-03-03T07:20:02.735Z,27.38
2023-03-03T07:25:15.948Z,24.67
2023-03-03T07:30:24.955Z,19.70
2023-03-03T07:35:37.506Z,21.17
2023-03-03T07:40:43.388Z,27.85
2023-03-03T07:45:46.838Z,20.45
2023-03-03T07:50:51.676Z,20.00
2023-03-03T07:55:55.427Z,21.80
2023-03-03T08:01:13.407Z,20.08
2023-03-03T08:06:30.725Z,23.05
2023-03-03T08:11:33.828Z,20.00
2023-03-03T08:16:38.464Z,23.40
2023-03-03T08:21:43.013Z,24.40
2023-03-03T08:26:46.270Z,26.98
2023-03-03T08:31:49.514Z,24.80
2023-03-03T08:36:54.324Z,78.47
2023-03-03T08:41:57.795Z,20.25
2023-03-03T08:47:01.258Z,20.30
2023-03-03T08:52:05.945Z,16.58
2023-03-03T08:57:09.215Z,18.33
2023-03-03T09:02:12.417Z,18.98
2023-03-03T09:07:16.993Z,15.55
2023-03-03T09:12:21.048Z,20.77
2023-03-03T09:17:26.309Z,20.40
2023-03-03T09:22:37.477Z,15.70
2023-03-03T09:27:41.716Z,17.27
2023-03-03T09:32:44.909Z,19.23
2023-03-03T09:37:50.752Z,17.00
2023-03-03T09:43:00.719Z,11.98
2023-03-03T09:48:12.873Z,14.75
2023-03-03T09:53:20.816Z,15.80
2023-03-03T09:58:29.064Z,13.32
2023-03-03T10:03:46.682Z,18.80
2023-03-03T10:09:04.373Z,15.55
2023-03-03T10:14:22.506Z,15.68
2023-03-03T10:19:34.667Z,12.48
2023-03-03T10:24:42.315Z,10.82
2023-03-03T10:29:50.609Z,13.98
2023-03-03T10:35:04.349Z,10.85
2023-03-03T10:40:18.704Z,13.38
2023-03-03T10:45:35.258Z,12.88
2023-03-03T10:50:48.235Z,12.85
2023-03-03T10:55:59.098Z,10.95
2023-03-03T11:01:06.013Z,12.15
2023-03-03T11:06:12.043Z,13.93
2023-03-03T11:11:19.372Z,10.25
2023-03-03T11:16:29.232Z,11.27
2023-03-03T11:21:36.249Z,8.32
2023-03-03T11:26:45.350Z,10.77
2023-03-03T11:31:50.335Z,11.23
2023-03-03T11:36:57.236Z,9.70
2023-03-03T11:42:08.454Z,11.23
2023-03-03T11:47:15.644Z,10.02
2023-03-03T11:52:23.639Z,9.55
2023-03-03T11:57:30.798Z,9.38
2023-03-03T12:02:44.023Z,9.85
2023-03-03T12:07:51.079Z,8.65
2023-03-03T12:13:00.996Z,6.90
2023-03-03T12:18:20.137Z,9.68
2023-03-03T12:23:35.374Z,7.85
2023-03-03T12:28:42.684Z,10.90
2023-03-03T12:33:54.111Z,6.75
2023-03-03T12:39:02.772Z,9.40
2023-03-03T12:44:09.460Z,6.43
2023-03-03T12:49:12.668Z,8.70
2023-03-03T12:54:21.174Z,26.77
2023-03-03T12:59:32.242Z,8.43
2023-03-03T13:09:45.813Z,6.25
2023-03-03T13:14:53.391Z,9.02
2023-03-03T13:20:00.094Z,10.43
2023-03-03T13:25:06.251Z,10.25
2023-03-03T13:30:16.720Z,5.60
2023-03-03T13:35:25.400Z,3.22
2023-03-03T13:40:35.062Z,7.60
2023-03-03T13:45:43.886Z,4.82
2023-03-03T13:50:50.034Z,6.82
2023-03-03T13:55:56.742Z,8.55
2023-03-03T14:01:02.742Z,7.25
2023-03-03T14:06:06.995Z,5.88
2023-03-03T14:11:12.067Z,8.15
2023-03-03T14:16:20.295Z,5.70
2023-03-03T14:21:28.317Z,7.90
2023-03-03T14:26:31.769Z,8.73
2023-03-03T14:31:43.385Z,10.40
2023-03-03T14:36:46.531Z,7.57
2023-03-03T14:41:51.839Z,10.23
2023-03-03T14:47:05.814Z,5.75
2023-03-03T14:52:19.688Z,6.18
2023-03-03T14:57:23.749Z,7.00
2023-03-03T15:02:44.860Z,9.25
2023-03-03T15:07:50.362Z,9.57
2023-03-03T15:12:53.503Z,9.35
2023-03-03T15:18:03.586Z,20.50
2023-03-03T15:23:15.610Z,16.00
2023-03-03T15:28:23.610Z,12.18
2023-03-03T15:33:30.652Z,6.70
2023-03-03T15:38:41.677Z,6.03
2023-03-03T15:43:48.093Z,5.80
2023-03-03T15:48:55.910Z,5.95
2023-03-03T15:54:06.348Z,5.13
2023-03-03T15:59:27.371Z,4.38
2023-03-03T16:04:31.234Z,6.57
2023-03-03T16:09:42.521Z,6.63
2023-03-03T16:14:51.091Z,6.70
2023-03-03T16:19:57.720Z,7.55
2023-03-03T16:25:07.312Z,5.28
2023-03-03T16:30:27.135Z,6.03
2023-03-03T16:35:32.791Z,18.65
2023-03-03T16:40:39.765Z,6.85
2023-03-03T16:45:43.101Z,6.68
2023-03-03T16:50:49.354Z,5.55
2023-03-03T16:55:58.279Z,8.13
2023-03-03T17:01:08.483Z,4.82
2023-03-03T17:06:15.049Z,6.60
2023-03-03T17:11:25.024Z,5.53
2023-03-03T17:16:39.869Z,5.95
2023-03-03T17:21:59.187Z,5.88
2023-03-03T17:27:09.535Z,5.55
2023-03-03T17:32:20.397Z,11.73
2023-03-03T17:37:30.877Z,10.82
2023-03-03T17:42:38.841Z,8.20
2023-03-03T17:47:47.254Z,6.90
2023-03-03T17:53:01.637Z,7.47
2023-03-03T17:58:22.423Z,5.43
2023-03-03T18:03:43.666Z,4.60
2023-03-03T18:09:02.008Z,9.00
2023-03-03T18:14:35.243Z,7.32
2023-03-03T18:19:59.157Z,6.80
2023-03-03T18:25:05.750Z,6.97
2023-03-03T18:30:29.933Z,4.95
2023-03-03T18:35:35.510Z,13.50
2023-03-03T18:40:49.625Z,12.82
2023-03-03T18:45:54.314Z,8.10
2023-03-03T18:50:57.475Z,9.73
2023-03-03T18:56:01.525Z,8.07
2023-03-03T19:01:15.637Z,10.68
2023-03-03T19:06:31.020Z,12.65
2023-03-03T19:11:37.173Z,12.43
2023-03-03T19:16:41.743Z,16.58
2023-03-03T19:21:48.127Z,17.92
2023-03-03T19:27:00.153Z,11.70
2023-03-03T19:32:12.489Z,16.35
2023-03-03T19:37:23.809Z,23.10
2023-03-03T19:42:34.974Z,16.67
2023-03-03T19:52:44.649Z,21.35
2023-03-03T19:57:54.067Z,19.55
2023-03-03T20:03:01.340Z,19.67
2023-03-03T20:08:10.524Z,20.50
2023-03-03T20:13:19.502Z,19.77
2023-03-03T20:18:49.524Z,22.08
2023-03-03T20:24:01.011Z,16.20
2023-03-03T20:29:08.842Z,21.88
2023-03-03T20:34:14.605Z,18.25
2023-03-03T20:39:24.372Z,16.77
2023-03-03T20:44:34.538Z,20.50
2023-03-03T20:49:48.538Z,17.73
2023-03-03T20:54:58.037Z,14.80
2023-03-03T21:00:03.686Z,19.60
2023-03-03T21:05:12.270Z,24.42
2023-03-03T21:10:17.831Z,20.15
2023-03-03T21:15:28.750Z,19.17
2023-03-03T21:20:32.663Z,23.52
2023-03-03T21:25:47.985Z,30.55
2023-03-03T21:31:01.841Z,26.25
2023-03-03T21:36:07.043Z,18.45
2023-03-03T21:41:12.795Z,19.95
2023-03-03T21:46:18.678Z,27.48
2023-03-03T21:51:24.292Z,19.55
2023-03-03T21:56:28.774Z,41.72
2023-03-03T22:01:31.924Z,19.25
2023-03-03T22:06:35.194Z,20.08
2023-03-03T22:11:39.897Z,27.02
2023-03-03T22:16:43.441Z,20.63
2023-03-03T22:21:47.829Z,15.52
2023-03-03T22:26:52.297Z,14.95
2023-03-03T22:31:55.665Z,19.27
2023-03-03T22:36:58.996Z,27.95
2023-03-03T22:42:03.700Z,19.15
2023-03-03T22:47:07.015Z,14.77
2023-03-03T22:52:10.308Z,24.50
2023-03-03T22:57:14.870Z,18.02
2023-03-03T23:02:18.014Z,16.05
2023-03-03T23:07:21.164Z,20.50
2023-03-03T23:12:25.644Z,23.83
2023-03-03T23:17:28.839Z,20.05
2023-03-03T23:22:31.959Z,18.80
2023-03-03T23:27:36.410Z,21.83
2023-03-03T23:32:39.488Z,20.98
2023-03-03T23:37:42.599Z,16.67
2023-03-03T23:42:47.098Z,23.45
2023-03-03T23:47:50.273Z,25.00
2023-03-03T23:52:53.445Z,15.63
2023-03-03T23:57:57.950Z,27.67
